.
WxDataArchive / Data Records for 2007-03-28
2007-03-27 March 2007 2007-03-29

Data Records for Wednesday, 28 March 2007

Time	Temp	Chill	HIndex	Humid	Dewpt	 Wind 	HiWind	WindDir	Rain 	Barom 
-----	----	-----	------	-----	-----	------	------	-------	-----	----- 
00:00	60.7	60.7	60.7	79	54.1	3	9	90	0.00	30.121 
00:05	60.5	60.5	60.5	79	54.0	3	5	90	0.00	30.118 
00:10	60.4	60.4	60.4	80	54.2	2	5	90	0.00	30.116 
00:15	60.1	60.1	60.1	80	53.9	2	5	90	0.00	30.115 
00:20	59.9	59.9	59.9	81	54.1	2	5	90	0.00	30.115 
00:25	59.6	59.6	59.6	82	54.1	2	5	90	0.00	30.114 
00:30	59.5	59.5	59.5	82	54.0	2	4	90	0.00	30.114 
00:35	59.3	59.3	59.3	83	54.1	2	5	90	0.00	30.113 
00:40	59.2	59.2	59.2	83	54.0	3	5	112	0.00	30.112 
00:45	59.0	59.0	59.0	84	54.2	3	4	112	0.00	30.107 
00:50	59.0	59.0	59.0	84	54.2	2	5	112	0.00	30.111 
00:55	58.9	58.9	58.9	84	54.1	2	4	112	0.00	30.110 
01:00	58.7	58.7	58.7	84	53.9	3	5	90	0.00	30.109 
01:05	58.7	58.7	58.7	85	54.2	2	4	90	0.00	30.107 
01:10	58.6	58.6	58.6	85	54.1	2	4	90	0.00	30.104 
01:15	58.4	58.4	58.4	85	53.9	3	9	112	0.00	30.102 
01:20	58.4	58.4	58.4	85	53.9	3	7	112	0.00	30.103 
01:25	58.3	58.3	58.3	86	54.1	2	5	90	0.00	30.104 
01:30	58.1	58.1	58.1	87	54.2	3	4	90	0.00	30.102 
01:35	57.8	57.8	57.8	88	54.3	4	9	112	0.00	30.112 
01:40	57.6	57.6	57.6	88	54.1	3	11	90	0.00	30.111 
01:45	57.5	57.5	57.5	89	54.3	4	10	112	0.00	30.111 
01:50	57.3	57.3	57.3	89	54.1	3	6	112	0.00	30.108 
01:55	57.2	57.2	57.2	89	54.0	3	6	112	0.00	30.114 
02:00	56.9	56.9	56.9	89	53.7	2	6	112	0.00	30.113 
02:05	56.7	56.7	56.7	89	53.5	3	9	90	0.00	30.115 
02:10	56.6	56.6	56.6	89	53.4	3	9	90	0.00	30.121 
02:15	56.5	56.5	56.5	89	53.3	4	7	112	0.00	30.119 
02:20	56.3	56.3	56.3	89	53.1	5	13	112	0.00	30.116 
02:25	56.3	56.3	56.3	89	53.1	5	9	112	0.00	30.116 
02:30	56.2	56.2	56.2	89	53.0	4	7	112	0.00	30.116 
02:35	56.0	56.0	56.0	89	52.8	3	7	112	0.00	30.118 
02:40	56.0	56.0	56.0	90	53.1	5	10	112	0.00	30.119 
02:45	56.0	56.0	56.0	90	53.1	6	11	112	0.00	30.116 
02:50	55.9	55.9	55.9	90	53.0	4	10	112	0.00	30.116 
02:55	55.7	55.7	55.7	90	52.8	4	13	90	0.00	30.117 
03:00	55.6	55.6	55.6	90	52.7	4	10	112	0.00	30.114 
03:05	55.4	55.4	55.4	90	52.5	5	14	112	0.00	30.112 
03:10	55.1	55.1	55.1	89	51.9	6	17	112	0.00	30.111 
03:15	55.0	55.0	55.0	89	51.8	7	16	112	0.00	30.111 
03:20	54.8	54.8	54.8	90	51.9	8	16	112	0.00	30.112 
03:25	54.7	54.7	54.7	91	52.1	6	12	112	0.00	30.113 
03:30	54.5	54.5	54.5	91	51.9	7	15	112	0.00	30.112 
03:35	54.5	54.5	54.5	92	52.2	6	14	112	0.00	30.110 
03:40	54.5	54.5	54.5	92	52.2	6	14	90	0.00	30.109 
03:45	54.5	54.5	54.5	93	52.5	6	18	112	0.00	30.100 
03:50	54.2	54.2	54.2	93	52.2	6	18	112	0.00	30.108 
03:55	53.3	53.3	53.3	93	51.3	6	13	112	0.00	30.112 
04:00	52.9	52.9	52.9	93	50.9	5	14	112	0.00	30.114 
04:05	52.6	52.6	52.6	92	50.3	7	16	112	0.00	30.116 
04:10	52.5	52.5	52.5	92	50.2	9	18	112	0.00	30.122 
04:15	52.3	52.3	52.3	91	49.8	5	15	112	0.00	30.121 
04:20	52.2	52.2	52.2	90	49.4	5	14	112	0.00	30.121 
04:25	52.0	52.0	52.0	90	49.2	6	14	112	0.00	30.127 
04:30	51.9	51.9	51.9	90	49.1	4	13	112	0.00	30.132 
04:35	51.6	51.6	51.6	90	48.8	4	10	90	0.00	30.135 
04:40	51.4	51.4	51.4	90	48.6	7	16	112	0.00	30.134 
04:45	51.3	51.3	51.3	89	48.2	6	13	112	0.00	30.133 
04:50	51.3	51.3	51.3	89	48.2	5	11	112	0.00	30.139 
04:55	51.1	51.1	51.1	90	48.3	6	14	112	0.00	30.142 
05:00	51.1	51.1	51.1	90	48.3	6	17	112	0.00	30.143 
05:05	51.1	51.1	51.1	90	48.3	5	20	112	0.00	30.145 
05:10	51.0	51.0	51.0	90	48.2	7	17	112	0.00	30.147 
05:15	51.0	51.0	51.0	90	48.2	6	16	112	0.00	30.150 
05:20	51.0	51.0	51.0	91	48.5	9	20	112	0.00	30.154 
05:25	51.0	51.0	51.0	91	48.5	8	17	112	0.00	30.158 
05:30	50.8	50.8	50.8	92	48.6	6	14	90	0.00	30.154 
05:35	50.8	50.8	50.8	92	48.6	8	18	112	0.00	30.157 
05:40	51.0	51.0	51.0	92	48.8	6	15	112	0.00	30.159 
05:45	51.0	51.0	51.0	91	48.5	10	21	112	0.00	30.158 
05:50	51.0	51.0	51.0	90	48.2	9	16	90	0.00	30.165 
05:55	51.0	51.0	51.0	90	48.2	5	10	112	0.00	30.169 
06:00	51.0	51.0	51.0	89	47.9	6	14	112	0.00	30.170 
06:05	51.0	51.0	51.0	88	47.6	7	16	112	0.00	30.180 
06:10	50.8	50.8	50.8	88	47.4	5	11	112	0.00	30.183 
06:15	50.7	50.7	50.7	88	47.3	9	16	90	0.00	30.184 
06:20	50.5	50.5	50.5	87	46.8	8	15	112	0.00	30.189 
06:25	50.4	50.4	50.4	87	46.7	7	17	112	0.00	30.190 
06:30	50.4	50.4	50.4	87	46.7	8	14	112	0.00	30.195 
06:35	50.4	50.4	50.4	87	46.7	7	12	112	0.00	30.198 
06:40	50.4	50.4	50.4	87	46.7	8	15	112	0.00	30.198 
06:45	50.4	50.4	50.4	87	46.7	6	14	112	0.00	30.199 
06:50	50.4	50.4	50.4	86	46.4	7	18	90	0.00	30.202 
06:55	50.4	50.4	50.4	87	46.7	6	10	112	0.00	30.206 
07:00	50.4	50.4	50.4	86	46.4	6	13	90	0.00	30.212 
07:05	50.4	50.4	50.4	87	46.7	3	7	90	0.00	30.216 
07:10	50.4	50.4	50.4	86	46.4	5	11	112	0.00	30.219 
07:15	50.4	50.4	50.4	87	46.7	4	11	90	0.00	30.219 
07:20	50.2	50.2	50.2	87	46.5	6	11	90	0.00	30.219 
07:25	50.2	50.2	50.2	87	46.5	6	12	90	0.00	30.221 
07:30	50.2	50.2	50.2	87	46.5	8	19	112	0.00	30.220 
07:35	50.1	50.1	50.1	87	46.4	8	14	112	0.00	30.222 
07:40	49.9	47.1	49.9	87	46.2	7	14	112	0.00	30.225 
07:45	49.8	46.5	49.8	88	46.4	8	14	112	0.00	30.222 
07:50	49.5	45.4	49.5	88	46.1	10	20	90	0.00	30.220 
07:55	49.4	45.6	49.4	88	46.0	9	18	90	0.00	30.222 
08:00	49.4	45.6	49.4	89	46.3	9	18	112	0.00	30.223 
08:05	49.2	45.8	49.2	89	46.1	8	14	90	0.00	30.231 
08:10	49.2	45.4	49.2	89	46.1	9	16	90	0.00	30.233 
08:15	49.1	44.9	49.1	89	46.0	10	17	90	0.00	30.225 
08:20	49.1	46.1	49.1	89	46.0	7	20	90	0.00	30.225 
08:25	49.1	45.3	49.1	88	45.7	9	18	112	0.00	30.223 
08:30	48.9	45.0	48.9	88	45.5	9	19	90	0.00	30.231 
08:35	49.1	45.7	49.1	88	45.7	8	13	112	0.00	30.233 
08:40	48.9	44.7	48.9	88	45.5	10	16	90	0.00	30.235 
08:45	48.9	45.4	48.9	88	45.5	8	16	112	0.00	30.232 
08:50	48.9	45.9	48.9	88	45.5	7	12	112	0.00	30.224 
08:55	48.9	46.4	48.9	88	45.5	6	13	112	0.00	30.232 
09:00	48.8	45.7	48.8	89	45.7	7	13	112	0.00	30.237 
09:05	48.8	46.2	48.8	89	45.7	6	13	112	0.00	30.238 
09:10	48.8	45.7	48.8	89	45.7	7	15	90	0.00	30.238 
09:15	48.6	46.0	48.6	88	45.2	6	13	112	0.00	30.238 
09:20	48.5	46.5	48.5	89	45.4	5	11	112	0.00	30.238 
09:25	48.5	44.9	48.5	89	45.4	8	16	112	0.00	30.240 
09:30	48.3	44.7	48.3	88	44.9	8	15	112	0.00	30.245 
09:35	48.3	45.6	48.3	88	44.9	6	13	112	0.00	30.245 
09:40	48.3	45.1	48.3	89	45.2	7	14	112	0.00	30.249 
09:45	48.2	44.6	48.2	89	45.1	8	16	112	0.00	30.242 
09:50	48.0	44.8	48.0	90	45.2	7	15	112	0.01	30.243 
09:55	47.7	44.9	47.7	91	45.2	6	14	112	0.01	30.249 
10:00	47.6	45.4	47.6	92	45.4	5	13	112	0.01	30.252 
10:05	47.3	43.9	47.3	91	44.8	7	13	112	0.00	30.254 
10:10	47.1	44.2	47.1	92	44.9	6	14	112	0.01	30.255 
10:15	47.0	43.1	47.0	92	44.8	8	16	112	0.03	30.258 
10:20	46.7	43.2	46.7	92	44.5	7	15	112	0.02	30.258 
10:25	46.5	42.1	46.5	92	44.3	9	17	112	0.06	30.257 
10:30	46.4	43.4	46.4	93	44.5	6	12	112	0.05	30.255 
10:35	46.4	44.0	46.4	93	44.5	5	14	112	0.02	30.256 
10:40	46.4	42.9	46.4	94	44.8	7	14	112	0.01	30.256 
10:45	46.2	42.6	46.2	93	44.3	7	15	112	0.00	30.256 
10:50	46.2	42.6	46.2	92	44.0	7	18	90	0.00	30.257 
10:55	46.1	41.6	46.1	92	43.9	9	17	112	0.01	30.257 
11:00	46.1	42.5	46.1	92	43.9	7	13	90	0.00	30.256 
11:05	46.1	43.0	46.1	92	43.9	6	12	90	0.00	30.258 
11:10	46.2	42.1	46.2	92	44.0	8	15	112	0.00	30.257 
11:15	46.2	41.7	46.2	91	43.7	9	19	112	0.00	30.258 
11:20	46.2	42.6	46.2	91	43.7	7	15	112	0.00	30.257 
11:25	46.4	43.4	46.4	92	44.2	6	15	112	0.00	30.259 
11:30	46.1	41.6	46.1	90	43.3	9	19	112	0.00	30.259 
11:35	46.1	41.6	46.1	89	43.0	9	15	112	0.00	30.260 
11:40	46.0	41.1	46.0	89	42.9	10	24	112	0.00	30.260 
11:45	46.0	41.9	46.0	88	42.6	8	19	112	0.00	30.259 
11:50	45.8	41.2	45.8	88	42.5	9	17	112	0.00	30.260 
11:55	45.8	42.7	45.8	88	42.5	6	14	112	0.00	30.260 
12:00	45.7	42.5	45.7	88	42.4	6	14	90	0.01	30.260 
12:05	45.5	42.3	45.5	87	41.9	6	13	112	0.00	30.262 
12:10	45.4	42.2	45.4	87	41.8	6	14	90	0.00	30.263 
12:15	45.2	40.9	45.2	86	41.3	8	15	112	0.00	30.262 
12:20	45.2	41.4	45.2	86	41.3	7	14	112	0.00	30.261 
12:25	45.2	41.4	45.2	87	41.6	7	15	112	0.00	30.261 
12:30	44.9	40.6	44.9	87	41.3	8	16	112	0.01	30.261 
12:35	44.9	41.0	44.9	88	41.6	7	14	112	0.00	30.262 
12:40	44.6	40.2	44.6	89	41.6	8	14	112	0.01	30.262 
12:45	44.5	40.1	44.5	89	41.5	8	16	112	0.01	30.263 
12:50	44.2	39.7	44.2	90	41.5	8	18	112	0.01	30.263 
12:55	44.2	39.7	44.2	90	41.5	8	17	112	0.00	30.263 
13:00	44.1	40.1	44.1	91	41.6	7	15	90	0.02	30.263 
13:05	44.1	40.1	44.1	91	41.6	7	16	112	0.01	30.266 
13:10	44.2	40.8	44.2	92	42.0	6	12	112	0.01	30.267 
13:15	44.1	40.6	44.1	91	41.6	6	14	112	0.03	30.266 
13:20	44.1	40.1	44.1	91	41.6	7	13	112	0.01	30.266 
13:25	44.2	40.8	44.2	92	42.0	6	14	112	0.01	30.267 
13:30	44.3	40.9	44.3	92	42.1	6	12	112	0.01	30.266 
13:35	44.5	41.8	44.5	92	42.3	5	16	112	0.01	30.263 
13:40	44.3	40.3	44.3	91	41.8	7	15	90	0.01	30.263 
13:45	44.3	40.3	44.3	92	42.1	7	19	112	0.01	30.262 
13:50	44.5	41.1	44.5	92	42.3	6	15	112	0.01	30.258 
13:55	44.6	40.7	44.6	91	42.1	7	14	112	0.00	30.255 
14:00	44.9	42.2	44.9	92	42.7	5	14	90	0.01	30.256 
14:05	44.9	41.0	44.9	91	42.4	7	15	112	0.00	30.254 
14:10	44.9	41.6	44.9	91	42.4	6	14	112	0.00	30.253 
14:15	45.1	41.8	45.1	92	42.9	6	12	90	0.01	30.251 
14:20	45.2	42.6	45.2	92	43.0	5	13	112	0.00	30.249 
14:25	45.4	41.2	45.4	91	42.9	8	15	112	0.00	30.248 
14:30	45.5	41.8	45.5	91	43.0	7	14	112	0.01	30.246 
14:35	45.7	42.0	45.7	91	43.2	7	16	112	0.01	30.246 
14:40	46.0	43.5	46.0	91	43.5	5	14	90	0.00	30.245 
14:45	46.1	43.0	46.1	90	43.3	6	15	112	0.00	30.245 
14:50	46.1	43.0	46.1	90	43.3	6	12	112	0.01	30.245 
14:55	46.1	42.5	46.1	89	43.0	7	15	112	0.00	30.245 
15:00	46.1	43.6	46.1	89	43.0	5	12	112	0.01	30.244 
15:05	46.1	43.6	46.1	89	43.0	5	15	90	0.00	30.248 
15:10	46.1	43.0	46.1	88	42.7	6	13	112	0.00	30.247 
15:15	46.1	43.0	46.1	86	42.1	6	19	90	0.00	30.245 
15:20	46.1	43.0	46.1	86	42.1	6	11	112	0.00	30.245 
15:25	46.2	43.8	46.2	86	42.2	5	12	112	0.01	30.244 
15:30	46.2	43.8	46.2	86	42.2	5	10	112	0.00	30.248 
15:35	46.2	44.5	46.2	86	42.2	4	13	112	0.00	30.247 
15:40	46.2	44.5	46.2	84	41.6	4	10	112	0.00	30.248 
15:45	46.1	43.6	46.1	82	40.9	5	15	112	0.00	30.248 
15:50	46.1	43.0	46.1	79	40.0	6	15	112	0.01	30.249 
15:55	46.0	42.9	46.0	79	39.9	6	12	112	0.00	30.249 
16:00	45.7	43.2	45.7	77	38.9	5	12	112	0.01	30.250 
16:05	45.4	41.6	45.4	76	38.3	7	19	112	0.00	30.253 
16:10	44.9	39.7	44.9	69	35.4	10	23	112	0.01	30.253 
16:15	44.5	39.6	44.5	70	35.3	9	16	112	0.00	30.254 
16:20	44.2	39.7	44.2	70	35.0	8	14	112	0.00	30.256 
16:25	44.1	40.1	44.1	70	35.0	7	15	112	0.01	30.257 
16:30	44.1	39.6	44.1	69	34.6	8	14	112	0.00	30.257 
16:35	44.1	40.1	44.1	69	34.6	7	14	112	0.00	30.261 
16:40	44.1	39.1	44.1	69	34.6	9	16	112	0.00	30.262 
16:45	44.1	40.6	44.1	71	35.3	6	14	112	0.00	30.265 
16:50	43.9	40.4	43.9	71	35.1	6	13	112	0.01	30.267 
16:55	43.6	40.0	43.6	73	35.5	6	12	112	0.00	30.262 
17:00	43.5	39.9	43.5	72	35.1	6	12	112	0.01	30.262 
17:05	43.5	39.9	43.5	71	34.7	6	12	112	0.00	30.262 
17:10	43.3	39.7	43.3	71	34.5	6	14	112	0.00	30.264 
17:15	43.5	39.4	43.5	68	33.7	7	13	112	0.00	30.261 
17:20	43.3	39.7	43.3	69	33.8	6	12	112	0.01	30.262 
17:25	43.3	39.1	43.3	66	32.7	7	12	112	0.00	30.263 
17:30	43.3	39.7	43.3	69	33.8	6	13	112	0.00	30.267 
17:35	43.1	40.1	43.1	69	33.6	5	11	112	0.01	30.268 
17:40	43.1	40.1	43.1	70	34.0	5	9	112	0.00	30.269 
17:45	42.9	39.9	42.9	69	33.4	5	12	112	0.01	30.269 
17:50	42.9	39.9	42.9	70	33.8	5	11	112	0.00	30.270 
17:55	42.9	39.9	42.9	69	33.4	5	11	112	0.00	30.271 
18:00	43.1	40.1	43.1	69	33.6	5	13	112	0.00	30.271 
18:05	43.3	39.1	43.3	67	33.1	7	15	112	0.00	30.273 
18:10	43.3	39.7	43.3	66	32.7	6	11	112	0.00	30.275 
18:15	43.5	40.6	43.5	64	32.1	5	12	112	0.00	30.277 
18:20	43.5	41.4	43.5	65	32.5	4	14	112	0.00	30.283 
18:25	43.6	40.7	43.6	61	31.0	5	13	112	0.00	30.285 
18:30	43.6	40.7	43.6	60	30.6	5	12	112	0.00	30.287 
18:35	43.5	40.6	43.5	62	31.4	5	13	112	0.00	30.288 
18:40	43.3	40.3	43.3	64	32.0	5	12	112	0.00	30.291 
18:45	43.1	40.9	43.1	65	32.1	4	9	112	0.01	30.291 
18:50	42.6	40.3	42.6	67	32.4	4	7	112	0.00	30.289 
18:55	42.3	40.0	42.3	67	32.1	4	9	112	0.01	30.289 
19:00	42.6	40.3	42.6	64	31.3	4	9	112	0.00	30.288 
19:05	43.1	39.5	43.1	62	31.0	6	15	90	0.00	30.288 
19:10	43.5	40.6	43.5	60	30.5	5	12	112	0.00	30.289 
19:15	43.8	40.3	43.8	58	30.0	6	15	112	0.00	30.289 
19:20	43.8	40.3	43.8	58	30.0	6	12	112	0.00	30.291 
19:25	43.9	40.4	43.9	58	30.1	6	13	112	0.00	30.292 
19:30	44.1	40.6	44.1	58	30.3	6	12	112	0.00	30.291 
19:35	44.1	41.3	44.1	56	29.4	5	11	112	0.00	30.292 
19:40	44.1	41.3	44.1	55	29.0	5	12	112	0.00	30.292 
19:45	44.1	40.1	44.1	52	27.6	7	15	112	0.00	30.292 
19:50	44.2	40.2	44.2	53	28.2	7	15	112	0.00	30.295 
19:55	44.2	40.8	44.2	54	28.6	6	14	112	0.00	30.297 
20:00	44.2	40.8	44.2	52	27.7	6	14	90	0.00	30.301 
20:05	44.2	40.8	44.2	52	27.7	6	14	112	0.00	30.303 
20:10	44.3	41.5	44.3	50	26.8	5	12	112	0.00	30.303 
20:15	44.3	40.9	44.3	48	25.9	6	13	112	0.00	30.304 
20:20	44.5	41.1	44.5	49	26.5	6	12	112	0.00	30.304 
20:25	44.5	41.8	44.5	48	26.0	5	11	112	0.00	30.305 
20:30	44.5	41.8	44.5	50	27.0	5	11	112	0.00	30.308 
20:35	44.6	41.2	44.6	49	26.6	6	13	112	0.00	30.308 
20:40	44.5	41.8	44.5	50	27.0	5	15	112	0.00	30.310 
20:45	44.5	41.8	44.5	49	26.5	5	11	112	0.00	30.310 
20:50	44.5	41.8	44.5	49	26.5	5	11	112	0.00	30.309 
20:55	44.6	40.7	44.6	47	25.6	7	15	112	0.00	30.313 
21:00	44.6	40.2	44.6	46	25.1	8	18	112	0.00	30.315 
21:05	44.6	40.2	44.6	43	23.5	8	20	112	0.00	30.317 
21:10	44.8	40.4	44.8	45	24.8	8	15	112	0.00	30.317 
21:15	44.6	40.7	44.6	46	25.1	7	16	112	0.00	30.317 
21:20	44.6	41.9	44.6	48	26.1	5	12	112	0.00	30.318 
21:25	44.6	40.7	44.6	47	25.6	7	15	112	0.00	30.319 
21:30	44.5	41.8	44.5	49	26.5	5	15	112	0.00	30.319 
21:35	44.5	41.1	44.5	46	25.0	6	14	90	0.00	30.320 
21:40	44.6	40.7	44.6	46	25.1	7	13	112	0.00	30.322 
21:45	44.6	41.9	44.6	48	26.1	5	12	112	0.00	30.323 
21:50	44.5	40.6	44.5	48	26.0	7	15	112	0.00	30.323 
21:55	44.5	40.6	44.5	46	25.0	7	13	112	0.00	30.321 
22:00	44.5	41.1	44.5	48	26.0	6	12	112	0.00	30.321 
22:05	44.5	40.6	44.5	47	25.5	7	17	112	0.00	30.323 
22:10	44.6	40.7	44.6	48	26.1	7	12	112	0.00	30.323 
22:15	44.5	41.1	44.5	48	26.0	6	12	112	0.00	30.322 
22:20	44.5	41.1	44.5	49	26.5	6	13	90	0.00	30.322 
22:25	44.5	41.1	44.5	48	26.0	6	12	112	0.00	30.322 
22:30	44.6	41.2	44.6	49	26.6	6	11	112	0.00	30.323 
22:35	44.6	40.7	44.6	48	26.1	7	14	112	0.00	30.324 
22:40	44.6	41.2	44.6	46	25.1	6	13	112	0.00	30.328 
22:45	44.5	41.1	44.5	49	26.5	6	14	112	0.00	30.329 
22:50	44.5	41.8	44.5	49	26.5	5	13	112	0.00	30.328 
22:55	44.3	41.5	44.3	49	26.4	5	13	90	0.00	30.329 
23:00	44.3	41.5	44.3	49	26.4	5	10	112	0.00	30.330 
23:05	44.2	41.4	44.2	49	26.3	5	12	112	0.00	30.332 
23:10	44.2	41.4	44.2	48	25.8	5	13	112	0.00	30.334 
23:15	44.2	40.8	44.2	48	25.8	6	13	112	0.00	30.336 
23:20	44.2	40.8	44.2	48	25.8	6	15	112	0.00	30.334 
23:25	44.2	40.2	44.2	47	25.3	7	15	90	0.00	30.334 
23:30	44.2	40.8	44.2	47	25.3	6	14	112	0.00	30.335 
23:35	44.1	40.6	44.1	47	25.2	6	14	112	0.00	30.334 
23:40	44.1	40.6	44.1	47	25.2	6	13	112	0.00	30.335 
23:45	44.1	41.3	44.1	50	26.7	5	14	112	0.00	30.337 
23:50	43.9	41.1	43.9	50	26.5	5	12	112	0.00	30.337 
23:55	43.9	40.4	43.9	49	26.0	6	13	112	0.00	30.337 

CoCoRaHS
IN-AL-39
A2 Web Hosting
Creative Commons License
GoDaddy
Look for:

loaded 2017-10-16 18:20:25 • last modified 2010-11-18 10:43:29
Privacy PolicyDisclaimer
• wx.awcolley.com is powered by PmWiki v.2002016 •
• all content (unless otherwise noted) © 2017 A W Colley